Time;durP1;ratioP1;P1;durP2;ratioP2;P2;SDS_P1;SDS_P2;PMS_P1;PMS_P2;Temp;Humidity;BMP_temperature;BMP_pressure;BME280_temperature;BME280_humidity;BME280_pressure;Samples;Min_cycle;Max_cycle;Signal;HPM_P1;HPM_P2
2023/05/02 00:00:02;;;;;;;12.60;9.60;;;8.30;99.90;;;8.04;91.83;97961.38;5039109;28;20472;-73
2023/05/02 00:02:30;;;;;;;12.00;9.03;;;8.30;99.90;;;7.94;91.92;97954.50;5051572;28;20473;-74
2023/05/02 00:04:57;;;;;;;8.97;8.07;;;8.30;99.90;;;7.87;92.34;97953.66;5045058;28;20450;-75
2023/05/02 00:07:25;;;;;;;11.70;8.53;;;8.20;99.90;;;7.84;92.43;97954.06;5057328;28;20453;-74
2023/05/02 00:09:52;;;;;;;14.50;8.17;;;8.00;99.90;;;7.84;92.10;97942.47;5046200;28;20957;-73
2023/05/02 00:12:20;;;;;;;11.47;8.40;;;8.00;99.90;;;7.77;93.04;97947.81;5027266;28;20766;-74
2023/05/02 00:14:48;;;;;;;16.30;9.90;;;8.00;99.90;;;7.62;93.82;97929.94;5028798;28;20447;-74
2023/05/02 00:17:18;;;;;;;11.90;8.83;;;8.00;99.90;;;7.71;92.71;97932.47;5044765;28;20452;-72
2023/05/02 00:19:46;;;;;;;13.47;8.87;;;8.00;99.90;;;7.58;93.32;97920.63;5038313;28;20495;-74
2023/05/02 00:22:13;;;;;;;10.97;8.23;;;8.00;99.90;;;7.61;93.28;97939.03;5030958;28;20456;-74
2023/05/02 00:24:40;;;;;;;10.40;8.90;;;7.90;99.90;;;7.60;93.69;97936.56;5031408;28;20456;-73
2023/05/02 00:27:08;;;;;;;13.30;9.00;;;7.80;99.90;;;7.60;93.34;97940.06;5044499;28;20448;-73
2023/05/02 00:29:35;;;;;;;9.30;7.97;;;7.80;99.90;;;7.62;93.10;97943.38;5044502;28;20537;-73
2023/05/02 00:32:05;;;;;;;12.70;9.77;;;7.80;99.90;;;7.62;92.62;97932.63;5015373;28;20793;-75
2023/05/02 00:34:33;;;;;;;11.30;9.03;;;7.80;99.90;;;7.41;93.12;97921.97;5053090;28;20493;-74
2023/05/02 00:37:00;;;;;;;10.10;8.00;;;7.80;99.90;;;6.95;93.38;97865.03;5023347;28;20438;-74
2023/05/02 00:39:27;;;;;;;10.53;8.03;;;7.70;99.90;;;7.45;93.18;97948.25;5022441;28;20453;-75
2023/05/02 00:41:58;;;;;;;11.50;8.53;;;7.60;99.90;;;7.44;93.19;97945.75;5041785;28;20492;-75
2023/05/02 00:44:25;;;;;;;11.00;8.23;;;7.60;99.90;;;7.45;93.02;97936.66;5040988;28;20455;-75
2023/05/02 00:46:53;;;;;;;12.97;9.57;;;7.70;99.90;;;7.56;92.95;97935.28;5021773;28;20564;-74
2023/05/02 00:49:21;;;;;;;10.73;8.20;;;7.70;99.90;;;7.40;92.86;97929.19;5021977;28;20449;-74
2023/05/02 00:51:48;;;;;;;14.67;9.87;;;7.70;99.90;;;7.32;93.89;97946.28;5043021;28;20499;-73
2023/05/02 00:54:16;;;;;;;14.80;10.83;;;7.70;99.90;;;7.35;94.32;97943.25;5042492;28;20459;-75
2023/05/02 00:56:43;;;;;;;10.93;8.53;;;7.70;99.90;;;7.39;93.64;97953.59;5032618;28;20444;-72
2023/05/02 00:59:11;;;;;;;11.60;9.27;;;7.70;99.90;;;7.39;94.28;97950.91;5027407;28;21007;-73
2023/05/02 01:01:55;;;;;;;13.20;9.43;;;7.60;99.90;;;7.25;94.24;97942.75;5025619;28;20468;-73
2023/05/02 01:04:37;;;;;;;9.90;8.00;;;7.60;99.90;;;7.21;94.65;97954.91;5034964;28;20469;-74
2023/05/02 01:07:26;;;;;;;12.23;9.20;;;7.60;99.90;;;7.20;94.91;97953.22;5042977;28;20932;-73
2023/05/02 01:10:07;;;;;;;14.90;8.73;;;7.60;99.90;;;7.26;94.69;97954.31;5038706;28;20436;-72
2023/05/02 01:12:43;;;;;;;11.10;9.70;;;7.60;99.90;;;7.27;94.53;97948.75;5016962;28;21070;-75
2023/05/02 01:15:16;;;;;;;12.93;10.10;;;7.60;99.90;;;7.22;94.39;97961.97;5023266;28;20481;-73
2023/05/02 01:17:45;;;;;;;15.37;9.40;;;7.50;99.90;;;7.24;94.26;97962.59;5038676;28;20457;-73
2023/05/02 01:20:19;;;;;;;15.67;10.67;;;7.60;99.90;;;7.12;94.68;97956.06;5042711;28;20507;-73
2023/05/02 01:22:48;;;;;;;13.10;9.90;;;7.50;99.90;;;7.16;94.95;97954.66;5027187;28;20439;-75
2023/05/02 01:25:28;;;;;;;13.33;10.20;;;7.50;99.90;;;7.12;94.67;97956.06;5045756;28;20650;-74
2023/05/02 01:28:11;;;;;;;12.83;9.93;;;7.50;99.90;;;7.12;94.42;97958.75;5036642;28;20507;-75
2023/05/02 01:30:44;;;;;;;11.60;8.73;;;7.50;99.90;;;7.09;94.51;97947.38;5039254;28;20473;-74
2023/05/02 01:33:14;;;;;;;15.60;9.83;;;7.50;99.90;;;7.00;95.00;97956.59;5017216;28;20621;-73
2023/05/02 01:35:43;;;;;;;13.03;9.33;;;7.50;99.90;;;7.06;94.58;97942.41;5021232;28;20469;-74
2023/05/02 01:38:15;;;;;;;12.93;9.30;;;7.50;99.90;;;7.09;94.73;97958.13;5025496;28;20539;-75
2023/05/02 01:40:45;;;;;;;12.77;9.10;;;7.50;99.90;;;7.09;94.64;97957.28;5020156;28;20476;-75
2023/05/02 01:43:14;;;;;;;11.60;8.70;;;7.50;99.90;;;7.03;94.67;97953.53;5047090;28;20534;-74
2023/05/02 01:45:45;;;;;;;12.10;9.27;;;7.40;99.90;;;6.80;94.35;97933.09;5031592;28;20469;-75
2023/05/02 01:48:15;;;;;;;13.57;9.60;;;7.40;99.90;;;6.84;94.76;97955.03;5039259;28;20464;-74
2023/05/02 01:50:45;;;;;;;10.47;9.27;;;7.30;99.90;;;6.72;94.81;97946.63;5033706;28;20473;-75
2023/05/02 01:53:14;;;;;;;11.63;7.70;;;7.20;99.90;;;6.77;95.44;97959.50;5042049;28;20555;-73
2023/05/02 01:55:44;;;;;;;10.70;8.07;;;7.20;99.90;;;6.80;94.22;97962.63;5021453;28;20449;-71
2023/05/02 01:58:14;;;;;;;11.70;9.27;;;7.20;99.90;;;6.60;95.17;97967.00;5047662;28;20942;-72
2023/05/02 02:00:45;;;;;;;15.00;10.17;;;7.10;99.90;;;6.60;95.74;97964.31;5040287;28;20477;-72
2023/05/02 02:03:13;;;;;;;15.00;9.60;;;7.10;99.90;;;6.60;95.61;97962.44;5020740;28;20447;-73
2023/05/02 02:05:42;;;;;;;11.70;8.50;;;7.00;99.90;;;6.51;95.15;97951.00;5035405;28;20503;-72
2023/05/02 02:08:09;;;;;;;11.83;8.53;;;7.00;99.90;;;6.55;95.05;97951.44;5040989;28;20457;-72
2023/05/02 02:10:41;;;;;;;13.53;9.73;;;7.00;99.90;;;6.65;94.81;97960.00;5043618;28;20463;-73
2023/05/02 02:13:18;;;;;;;16.83;10.07;;;7.00;99.90;;;6.55;95.24;97966.72;5041026;28;20464;-73
2023/05/02 02:15:49;;;;;;;12.47;8.70;;;7.00;99.90;;;6.41;95.22;97963.88;5055650;28;20447;-73
2023/05/02 02:18:22;;;;;;;14.00;9.23;;;6.90;99.90;;;6.51;95.82;97971.63;5045326;28;20460;-73
2023/05/02 02:20:50;;;;;;;12.27;9.30;;;6.90;99.90;;;6.51;95.39;97963.56;5031085;28;20467;-72
2023/05/02 02:23:21;;;;;;;14.83;10.47;;;6.90;99.90;;;6.26;94.88;97930.91;5047682;28;21050;-71
2023/05/02 02:25:50;;;;;;;12.00;8.83;;;6.90;99.90;;;6.48;94.70;97967.50;5040576;28;20459;-74
2023/05/02 02:28:18;;;;;;;11.17;9.13;;;6.90;99.90;;;6.39;94.67;97965.94;5046801;28;20458;-73
2023/05/02 02:30:46;;;;;;;12.60;10.13;;;6.90;99.90;;;6.46;95.21;97974.06;5049496;28;20452;-73
2023/05/02 02:33:14;;;;;;;14.80;9.83;;;6.80;99.90;;;6.52;94.33;97979.50;5042901;28;20492;-74
2023/05/02 02:35:48;;;;;;;14.53;8.53;;;6.80;99.90;;;6.04;94.35;97920.16;5047591;28;20533;-73
2023/05/02 02:38:27;;;;;;;13.03;9.33;;;6.80;99.90;;;6.22;95.03;97974.22;5048123;28;20454;-75
2023/05/02 02:41:02;;;;;;;16.67;10.03;;;6.80;99.90;;;6.45;94.41;97988.50;5047231;28;20538;-76
2023/05/02 02:43:40;;;;;;;14.50;9.93;;;6.80;99.90;;;6.32;93.90;97978.47;5040213;28;20453;-75
2023/05/02 02:46:25;;;;;;;12.17;9.53;;;6.80;99.90;;;6.35;93.69;97984.25;5030023;28;20456;-75
2023/05/02 02:49:09;;;;;;;11.97;9.10;;;6.80;99.90;;;6.35;93.92;97996.88;5026436;28;20494;-73
2023/05/02 02:51:44;;;;;;;11.47;8.70;;;6.70;99.90;;;6.34;93.55;97997.88;5045777;28;20461;-75
2023/05/02 02:54:23;;;;;;;13.80;9.70;;;6.70;99.90;;;6.33;93.84;98009.63;5066930;28;21026;-75
2023/05/02 02:57:00;;;;;;;10.47;7.90;;;6.70;99.90;;;6.19;93.63;98012.16;5058829;28;20489;-75
2023/05/02 02:59:32;;;;;;;11.67;8.87;;;6.50;99.90;;;6.07;94.82;98013.66;5051369;28;20445;-75
2023/05/02 03:02:08;;;;;;;12.10;9.27;;;6.50;99.90;;;6.23;95.33;98026.84;5042217;28;20505;-76
2023/05/02 03:04:38;;;;;;;13.77;8.87;;;6.50;99.90;;;6.07;95.60;98014.50;5050005;28;20487;-75
2023/05/02 03:07:05;;;;;;;14.73;9.97;;;6.50;99.90;;;6.20;95.20;98029.06;5042036;28;20458;-75
2023/05/02 03:09:41;;;;;;;15.03;9.73;;;6.50;99.90;;;6.11;94.39;98009.56;5044413;28;20458;-76
2023/05/02 03:12:09;;;;;;;12.00;9.47;;;6.50;99.90;;;6.12;95.39;98011.22;5056426;28;20437;-74
2023/05/02 03:14:36;;;;;;;13.77;9.60;;;6.50;99.90;;;6.20;95.51;98029.06;5045251;28;20494;-75
2023/05/02 03:17:07;;;;;;;15.77;10.93;;;6.50;99.90;;;6.33;95.23;98041.84;5032642;28;20911;-73
2023/05/02 03:19:34;;;;;;;15.67;11.10;;;6.60;99.90;;;6.20;94.90;98045.16;5025449;28;20487;-74
2023/05/02 03:22:01;;;;;;;15.30;9.67;;;6.60;99.90;;;6.06;95.13;98038.81;5044432;28;20470;-75
2023/05/02 03:24:29;;;;;;;12.73;9.27;;;6.60;99.90;;;6.23;94.77;98053.69;5057465;28;20447;-76
2023/05/02 03:26:57;;;;;;;9.93;8.20;;;6.60;99.90;;;6.09;95.14;98028.53;5044368;28;20454;-75
2023/05/02 03:29:25;;;;;;;16.40;10.93;;;6.40;99.90;;;5.93;94.80;98004.56;5030021;28;20483;-76
2023/05/02 03:31:52;;;;;;;10.30;9.13;;;6.50;99.90;;;5.85;94.94;97981.38;5035504;28;20457;-76
2023/05/02 03:34:21;;;;;;;13.50;10.20;;;6.60;99.90;;;6.18;94.56;98042.69;5036235;28;20953;-74
2023/05/02 03:36:49;;;;;;;12.90;10.63;;;6.50;99.90;;;6.17;95.27;98043.72;5047215;28;20542;-73
2023/05/02 03:39:16;;;;;;;15.90;11.27;;;6.60;99.90;;;6.09;95.07;98015.13;5049006;28;20528;-71
2023/05/02 03:41:44;;;;;;;13.80;10.13;;;6.60;99.90;;;6.31;94.69;98052.75;5050244;28;20471;-72
2023/05/02 03:44:11;;;;;;;14.80;10.80;;;6.70;99.90;;;6.12;95.58;98038.06;5043692;28;20455;-72
2023/05/02 03:46:38;;;;;;;12.10;9.47;;;6.60;99.90;;;5.86;94.68;97985.72;5023554;28;20814;-72
2023/05/02 03:49:06;;;;;;;12.97;9.03;;;6.70;99.90;;;6.33;95.02;98049.91;5041167;28;20585;-75
2023/05/02 03:51:34;;;;;;;14.67;10.53;;;6.70;99.90;;;6.35;94.67;98045.16;5026378;28;20526;-71
2023/05/02 03:54:02;;;;;;;14.47;11.60;;;6.70;99.90;;;6.32;94.17;98034.81;5032113;28;20535;-75
2023/05/02 03:56:29;;;;;;;14.43;9.80;;;6.80;99.90;;;5.87;94.59;97967.75;5046467;28;20448;-73
2023/05/02 03:58:57;;;;;;;14.77;11.07;;;6.80;99.90;;;6.06;94.40;97993.22;5039900;28;20522;-74
2023/05/02 04:01:25;;;;;;;14.83;10.23;;;6.80;99.90;;;6.64;93.24;98056.88;5021854;28;20810;-74
2023/05/02 04:03:53;;;;;;;15.13;10.77;;;6.90;99.90;;;6.46;92.93;98025.91;5041250;28;20465;-74
2023/05/02 04:06:20;;;;;;;12.90;9.97;;;7.00;99.90;;;6.45;92.87;98021.56;5052338;28;20461;-74
2023/05/02 04:08:48;;;;;;;13.47;10.30;;;7.00;99.90;;;6.79;92.89;98067.53;5024797;28;20445;-74
2023/05/02 04:11:16;;;;;;;12.00;8.90;;;7.10;99.90;;;6.85;92.88;98072.19;5028091;28;20829;-73
2023/05/02 04:13:43;;;;;;;14.40;10.83;;;7.10;99.90;;;6.99;91.82;98081.19;5044773;28;20467;-73
2023/05/02 04:16:11;;;;;;;16.03;11.00;;;7.30;99.90;;;6.97;92.10;98077.03;5044369;28;20933;-72
2023/05/02 04:18:38;;;;;;;15.80;10.53;;;7.30;99.90;;;7.01;91.69;98067.59;5034212;28;20544;-74
2023/05/02 04:21:08;;;;;;;14.10;10.60;;;7.30;99.90;;;7.04;91.48;98086.00;5027783;28;20476;-73
2023/05/02 04:23:35;;;;;;;13.73;10.17;;;7.40;99.90;;;7.22;91.56;98082.88;5019631;28;20455;-74
2023/05/02 04:26:04;;;;;;;13.50;9.60;;;7.40;99.90;;;7.37;90.72;98091.72;5021697;28;20452;-75
2023/05/02 04:28:31;;;;;;;16.23;11.50;;;7.50;99.90;;;7.39;89.89;98079.94;5044993;28;20562;-73
2023/05/02 04:30:59;;;;;;;13.73;10.00;;;7.60;99.90;;;7.46;89.60;98080.81;5046529;28;20468;-75
2023/05/02 04:33:26;;;;;;;10.83;9.50;;;7.70;99.90;;;7.62;88.75;98093.97;5033136;28;20458;-73
2023/05/02 04:35:53;;;;;;;11.30;8.97;;;7.80;99.90;;;7.65;88.63;98085.50;5055909;28;20448;-73
2023/05/02 04:38:20;;;;;;;13.20;10.87;;;7.90;99.90;;;7.85;88.54;98103.66;5051254;28;20457;-70
2023/05/02 04:40:50;;;;;;;14.97;10.73;;;8.00;99.90;;;8.04;87.04;98106.69;5043008;28;20519;-69
2023/05/02 04:43:18;;;;;;;12.13;9.20;;;8.20;99.90;;;8.08;86.62;98102.56;5034828;28;20477;-71
2023/05/02 04:45:46;;;;;;;11.43;9.90;;;8.30;99.60;;;8.09;87.16;98117.69;5021298;28;20462;-72
2023/05/02 04:48:13;;;;;;;12.70;9.43;;;8.30;98.80;;;8.20;85.92;98119.84;5031615;28;20454;-73
2023/05/02 04:50:40;;;;;;;11.80;9.40;;;8.40;97.80;;;8.47;85.95;98119.16;5039749;28;20461;-70
2023/05/02 04:53:07;;;;;;;13.00;10.00;;;8.60;97.40;;;8.67;84.04;98116.59;5028380;28;20447;-70
2023/05/02 04:55:34;;;;;;;9.87;8.37;;;8.80;96.40;;;8.54;83.26;98127.28;5027008;28;20448;-72
2023/05/02 04:58:03;;;;;;;11.27;9.07;;;8.90;94.00;;;8.87;83.19;98118.50;5025345;28;20456;-72
2023/05/02 05:00:32;;;;;;;10.93;8.77;;;9.00;94.50;;;8.48;83.14;98132.44;5038805;28;20440;-72
2023/05/02 05:02:59;;;;;;;15.57;9.90;;;8.90;93.50;;;8.54;83.62;98128.13;5040037;28;20565;-71
2023/05/02 05:05:26;;;;;;;12.30;9.13;;;8.90;94.00;;;8.41;84.29;98125.34;5045249;28;20453;-72
2023/05/02 05:07:53;;;;;;;11.40;9.00;;;8.90;94.00;;;8.45;83.92;98132.81;5022018;28;20456;-70
2023/05/02 05:10:21;;;;;;;14.40;10.20;;;8.90;94.30;;;8.79;83.43;98133.84;5041905;28;20461;-72
2023/05/02 05:12:48;;;;;;;12.90;10.40;;;9.00;94.50;;;8.75;81.99;98132.59;5025664;28;20944;-76
2023/05/02 05:15:16;;;;;;;12.77;9.97;;;9.20;93.00;;;9.04;81.10;98152.19;5041808;28;20508;-72
2023/05/02 05:17:45;;;;;;;12.30;10.23;;;9.30;92.80;;;8.93;80.94;98142.78;5015575;28;20457;-70
2023/05/02 05:20:12;;;;;;;10.00;8.27;;;9.30;92.00;;;9.11;81.55;98156.75;5044339;28;20925;-72
2023/05/02 05:22:40;;;;;;;12.23;9.10;;;9.30;92.60;;;9.47;79.21;98158.28;5013342;28;20477;-69
2023/05/02 05:25:08;;;;;;;12.10;9.77;;;9.50;92.00;;;9.46;79.43;98132.34;5018724;28;20457;-71
2023/05/02 05:27:36;;;;;;;12.90;9.57;;;9.70;91.50;;;9.47;79.07;98155.59;5019478;28;20511;-67
2023/05/02 05:30:04;;;;;;;11.40;9.23;;;9.70;91.00;;;9.35;79.37;98158.06;5041287;28;20490;-69
2023/05/02 05:32:33;;;;;;;11.83;9.40;;;9.70;90.70;;;9.30;79.42;98163.25;5041991;28;20450;-71
2023/05/02 05:35:02;;;;;;;12.97;9.43;;;9.70;90.90;;;9.58;78.52;98157.69;5034932;28;20541;-73
2023/05/02 05:37:30;;;;;;;10.77;9.60;;;9.80;91.00;;;9.67;78.34;98161.00;5032851;28;20456;-77
2023/05/02 05:39:58;;;;;;;11.80;8.83;;;9.90;90.60;;;9.62;78.82;98167.00;5017513;28;20536;-73
2023/05/02 05:42:28;;;;;;;16.63;8.97;;;9.90;90.80;;;9.85;79.00;98165.81;5025250;28;20460;-74
2023/05/02 05:44:59;;;;;;;11.13;9.73;;;10.00;90.30;;;9.83;77.74;98175.97;5023570;28;20472;-69
2023/05/02 05:47:27;;;;;;;14.90;9.60;;;10.10;89.50;;;9.78;77.78;98170.34;5038746;28;20525;-74
2023/05/02 05:49:54;;;;;;;14.20;9.80;;;10.10;88.70;;;9.85;77.52;98173.06;5043955;28;20469;-69
2023/05/02 05:52:23;;;;;;;12.50;10.10;;;10.10;88.90;;;9.56;78.28;98167.84;5050344;28;20492;-73
2023/05/02 05:54:53;;;;;;;12.50;9.80;;;10.10;88.50;;;9.56;78.97;98175.94;5045801;28;20455;-71
2023/05/02 05:57:21;;;;;;;13.40;10.10;;;10.00;89.20;;;9.76;78.51;98177.81;5038174;28;20449;-73
2023/05/02 05:59:49;;;;;;;13.87;9.90;;;10.00;90.40;;;9.73;78.37;98176.38;5020667;28;20460;-74
2023/05/02 06:02:18;;;;;;;10.23;9.10;;;9.90;90.80;;;9.91;77.38;98178.47;5013611;28;20481;-72
2023/05/02 06:04:45;;;;;;;11.17;8.60;;;10.10;90.10;;;9.56;78.51;98135.47;5033915;28;20952;-73
2023/05/02 06:07:13;;;;;;;12.57;9.90;;;10.10;90.00;;;10.04;77.31;98184.91;5037978;28;21179;-71
2023/05/02 06:09:41;;;;;;;11.00;9.17;;;10.20;89.60;;;9.95;78.03;98195.06;5025335;28;20456;-71
2023/05/02 06:12:08;;;;;;;11.27;9.77;;;10.20;89.50;;;9.70;77.95;98194.84;5018580;28;20486;-72
2023/05/02 06:14:37;;;;;;;15.00;9.70;;;10.10;89.10;;;9.58;78.65;98205.41;5050648;28;20482;-76
2023/05/02 06:17:05;;;;;;;10.53;9.10;;;10.00;89.30;;;9.71;78.99;98208.16;5051042;28;20453;-76
2023/05/02 06:19:33;;;;;;;15.50;10.50;;;10.00;90.10;;;9.50;79.14;98212.66;5024071;28;20522;-71
2023/05/02 06:22:11;;;;;;;13.03;10.07;;;9.90;90.50;;;9.66;78.33;98218.69;4988435;28;20487;-73
2023/05/02 06:24:38;;;;;;;10.90;8.50;;;10.00;90.20;;;10.02;77.91;98219.38;5034235;28;20461;-74
2023/05/02 06:27:07;;;;;;;12.80;9.50;;;10.00;90.20;;;9.87;77.69;98219.59;5053148;28;20526;-72
2023/05/02 06:29:34;;;;;;;11.00;9.23;;;10.10;89.90;;;10.04;77.29;98225.38;5042227;28;20507;-72
2023/05/02 06:32:03;;;;;;;10.70;9.53;;;10.20;89.50;;;10.25;76.50;98231.66;5036474;28;20488;-73
2023/05/02 06:34:32;;;;;;;11.83;9.07;;;10.30;89.00;;;10.23;76.78;98233.69;5036999;28;20467;-73
2023/05/02 06:37:00;;;;;;;11.10;9.90;;;10.40;89.00;;;10.03;77.43;98229.13;5014547;28;20458;-72
2023/05/02 06:39:27;;;;;;;13.37;10.00;;;10.30;89.30;;;10.12;77.85;98243.25;5023895;28;20957;-73
2023/05/02 06:41:57;;;;;;;10.43;9.13;;;10.30;90.10;;;10.39;76.91;98244.09;5044089;28;20808;-70
2023/05/02 06:44:26;;;;;;;10.97;9.83;;;10.50;89.30;;;10.62;75.61;98256.34;5040822;28;20452;-72
2023/05/02 06:46:54;;;;;;;13.13;10.20;;;10.60;88.70;;;10.67;75.22;98253.03;5030262;28;20474;-72
2023/05/02 06:49:22;;;;;;;11.07;9.10;;;10.70;88.10;;;10.69;75.10;98259.91;5034874;28;20971;-71
2023/05/02 06:51:49;;;;;;;10.63;9.40;;;10.80;87.60;;;10.87;75.35;98266.50;5014624;28;20841;-71
2023/05/02 06:54:17;;;;;;;12.90;9.90;;;10.80;87.60;;;11.03;73.63;98266.06;5040666;28;20510;-73
2023/05/02 06:56:44;;;;;;;10.47;9.37;;;11.10;86.50;;;10.89;74.87;98265.25;5027126;28;20489;-72
2023/05/02 06:59:11;;;;;;;12.27;9.40;;;11.00;86.40;;;10.88;74.64;98268.19;5024757;28;20957;-70
2023/05/02 07:01:40;;;;;;;11.67;9.30;;;11.00;86.70;;;10.68;75.28;98268.22;5027110;28;20480;-71
2023/05/02 07:04:07;;;;;;;11.47;10.27;;;11.00;86.70;;;10.80;75.29;98282.75;5046781;28;20464;-72
2023/05/02 07:06:34;;;;;;;13.43;9.33;;;11.00;86.90;;;10.96;75.19;98281.44;5019547;28;20461;-70
2023/05/02 07:09:01;;;;;;;11.73;8.43;;;11.00;87.30;;;11.17;73.67;98288.47;5020456;28;20460;-71
2023/05/02 07:11:29;;;;;;;11.33;9.77;;;11.10;86.90;;;11.08;74.00;98297.03;5045291;28;20850;-72
2023/05/02 07:13:56;;;;;;;10.30;9.20;;;11.20;86.50;;;10.94;75.02;98286.25;5038623;28;20468;-72
2023/05/02 07:16:23;;;;;;;11.30;10.00;;;11.20;86.90;;;11.30;74.07;98297.59;5035134;28;21042;-72
2023/05/02 07:18:52;;;;;;;11.00;9.63;;;11.30;86.90;;;11.30;73.35;98293.03;5019359;28;20461;-72
2023/05/02 07:21:19;;;;;;;11.10;9.90;;;11.40;86.30;;;11.42;73.50;98295.03;5040174;28;20470;-74
2023/05/02 07:23:46;;;;;;;12.03;9.80;;;11.50;86.10;;;11.46;73.09;98307.13;5037764;28;20947;-72
2023/05/02 07:26:13;;;;;;;9.70;8.60;;;11.50;85.90;;;11.72;72.34;98310.72;5047184;28;21038;-72
2023/05/02 07:28:40;;;;;;;10.80;8.80;;;11.70;85.60;;;11.48;72.17;98307.72;5032970;28;20448;-71
2023/05/02 07:31:07;;;;;;;12.90;10.80;;;11.60;84.70;;;11.55;72.23;98311.22;5044953;28;20945;-71
2023/05/02 07:33:35;;;;;;;11.80;9.40;;;11.60;84.60;;;11.80;71.50;98312.34;5045741;28;20457;-71
2023/05/02 07:36:04;;;;;;;10.47;9.20;;;11.80;84.70;;;11.95;71.39;98312.09;5046095;28;20448;-71
2023/05/02 07:38:31;;;;;;;10.73;8.93;;;11.90;84.70;;;12.00;71.16;98304.13;5046814;28;20449;-73
2023/05/02 07:40:59;;;;;;;10.47;9.37;;;12.10;84.60;;;11.95;70.98;98309.38;5048940;28;20519;-72
2023/05/02 07:43:26;;;;;;;14.10;10.10;;;12.20;83.90;;;12.13;70.44;98306.78;5046739;28;21199;-70
2023/05/02 07:45:54;;;;;;;10.10;9.10;;;12.30;83.80;;;12.34;69.51;98318.31;5032075;28;20465;-70
2023/05/02 07:48:21;;;;;;;9.87;8.53;;;12.40;83.50;;;12.18;70.12;98320.50;5027473;28;20475;-72
2023/05/02 07:50:48;;;;;;;11.20;8.27;;;12.30;83.30;;;12.09;69.71;98327.25;5046638;28;20524;-72
2023/05/02 07:53:17;;;;;;;10.43;8.30;;;12.30;83.00;;;11.84;71.08;98330.66;5045407;28;20445;-72
2023/05/02 07:55:44;;;;;;;9.17;8.23;;;12.10;83.50;;;11.79;71.39;98333.19;5032816;28;20806;-73
2023/05/02 07:58:12;;;;;;;11.93;9.50;;;12.00;83.60;;;11.69;72.43;98339.06;5053039;28;20785;-72
2023/05/02 08:00:39;;;;;;;12.27;8.07;;;11.90;84.10;;;11.55;73.59;98338.28;5042264;28;20955;-71
2023/05/02 08:03:07;;;;;;;13.67;9.27;;;11.80;85.00;;;11.25;74.88;98340.69;5041233;28;20972;-70
2023/05/02 08:05:34;;;;;;;12.80;9.77;;;11.60;85.80;;;10.88;76.59;98343.88;5044788;28;20540;-73
2023/05/02 08:08:01;;;;;;;11.47;8.83;;;11.30;87.40;;;10.69;79.43;98346.38;5045700;28;20951;-74
2023/05/02 08:10:30;;;;;;;11.80;9.00;;;11.00;91.20;;;10.42;82.23;98343.66;5038994;28;20457;-73
2023/05/02 08:12:57;;;;;;;12.40;9.20;;;10.70;93.10;;;10.56;83.62;98357.19;5023184;28;20621;-73
2023/05/02 08:15:24;;;;;;;11.23;9.20;;;10.70;95.30;;;10.49;83.12;98357.16;5037362;28;20457;-73
2023/05/02 08:17:52;;;;;;;11.10;8.73;;;10.60;95.00;;;10.56;83.99;98354.47;5038957;28;20461;-72
2023/05/02 08:20:19;;;;;;;9.53;8.53;;;10.70;95.70;;;10.71;83.57;98360.50;5026453;28;20465;-73
2023/05/02 08:22:46;;;;;;;10.83;8.83;;;10.70;96.40;;;10.84;83.23;98358.81;5041450;28;20472;-72
2023/05/02 08:25:13;;;;;;;12.80;8.60;;;10.90;95.50;;;11.09;82.15;98369.00;5035871;28;21208;-73
2023/05/02 08:27:42;;;;;;;12.00;8.30;;;11.00;95.40;;;11.29;80.64;98361.66;5044767;28;20460;-71
2023/05/02 08:30:09;;;;;;;10.53;9.10;;;11.30;93.90;;;11.53;80.27;98361.22;5044942;28;20461;-72
2023/05/02 08:32:37;;;;;;;10.20;8.50;;;11.50;93.70;;;11.38;79.43;98342.50;5038243;28;20466;-73
2023/05/02 08:35:05;;;;;;;11.33;8.63;;;11.60;92.60;;;11.81;78.50;98369.00;5043347;28;20476;-72
2023/05/02 08:37:32;;;;;;;10.23;8.77;;;11.70;92.20;;;12.04;77.14;98363.09;5044094;28;20454;-72
2023/05/02 08:40:00;;;;;;;9.37;8.47;;;11.90;91.00;;;12.41;74.85;98356.19;5044048;28;20486;-72
2023/05/02 08:42:31;;;;;;;7.80;6.90;;;12.20;90.00;;;12.13;75.69;98366.38;5029437;28;20572;-71
2023/05/02 08:45:01;;;;;;;8.37;7.30;;;12.20;89.10;;;12.66;74.63;98358.94;5032435;28;20533;-70
2023/05/02 08:47:31;;;;;;;7.67;6.87;;;12.50;89.60;;;13.03;71.76;98361.75;5015521;28;20453;-70
2023/05/02 08:50:00;;;;;;;7.20;6.50;;;12.80;87.00;;;13.30;70.46;98375.06;5041703;28;20472;-70
2023/05/02 08:52:27;;;;;;;7.40;6.70;;;13.10;85.50;;;13.48;68.88;98370.72;5045148;28;20462;-71
2023/05/02 08:54:55;;;;;;;7.80;6.30;;;13.40;84.20;;;13.51;68.34;98370.25;5041246;28;20466;-72
2023/05/02 08:57:23;;;;;;;9.10;7.50;;;13.50;83.60;;;13.75;69.02;98367.72;5042414;28;20481;-73
2023/05/02 08:59:50;;;;;;;7.73;6.93;;;13.70;83.90;;;14.00;67.15;98374.91;5044452;28;20560;-73
2023/05/02 09:02:39;;;;;;;8.97;7.90;;;14.00;82.90;;;14.20;65.66;98373.81;5026986;28;20519;-72
2023/05/02 09:05:08;;;;;;;7.93;7.13;;;14.10;81.90;;;14.41;65.34;98378.72;5055543;28;20460;-72
2023/05/02 09:07:45;;;;;;;8.90;7.33;;;14.40;81.70;;;14.34;65.74;98374.44;5047475;28;20455;-72
2023/05/02 09:10:13;;;;;;;8.07;7.27;;;14.40;81.20;;;14.13;63.39;98325.81;5026453;28;20540;-70
2023/05/02 09:12:41;;;;;;;6.83;6.23;;;14.50;80.30;;;13.73;65.80;98383.41;5033111;28;20458;-70
2023/05/02 09:15:13;;;;;;;7.30;6.60;;;14.20;80.10;;;12.78;70.42;98394.31;5041549;28;20477;-71
2023/05/02 09:17:47;;;;;;;7.70;6.83;;;13.50;81.90;;;13.02;68.01;98379.06;5042583;28;20440;-72
2023/05/02 09:20:16;;;;;;;9.90;8.37;;;13.40;81.50;;;13.18;68.49;98393.13;5038652;28;21349;-73
2023/05/02 09:22:50;;;;;;;8.67;6.50;;;13.40;81.80;;;13.75;67.15;98389.44;5036572;28;20491;-71
2023/05/02 09:25:17;;;;;;;8.80;7.53;;;13.70;82.00;;;14.30;66.74;98387.66;5048988;28;20510;-69
2023/05/02 09:27:53;;;;;;;7.07;6.37;;;14.20;82.20;;;14.47;64.32;98387.00;5051740;28;20446;-70
2023/05/02 09:30:23;;;;;;;7.30;6.67;;;14.50;80.90;;;14.45;63.29;98400.84;5041643;28;21159;-72
2023/05/02 09:32:54;;;;;;;8.17;6.97;;;14.50;79.30;;;13.92;64.21;98386.91;5040629;28;20474;-72
2023/05/02 09:35:23;;;;;;;7.57;6.73;;;14.30;79.10;;;14.55;64.58;98403.00;5037390;28;21771;-72
2023/05/02 09:37:54;;;;;;;8.57;7.13;;;14.60;80.50;;;14.39;64.20;98401.75;5042484;28;20461;-72
2023/05/02 09:40:23;;;;;;;8.50;7.60;;;14.60;79.50;;;14.98;64.06;98396.50;5052111;28;20491;-72
2023/05/02 09:42:50;;;;;;;7.63;6.83;;;14.90;80.10;;;14.75;62.17;98348.34;5047955;28;20485;-73
2023/05/02 09:45:22;;;;;;;7.90;7.10;;;15.20;78.60;;;15.25;63.06;98393.31;5036737;28;20464;-69
2023/05/02 09:47:51;;;;;;;7.13;6.43;;;15.30;79.80;;;15.44;59.89;98391.28;5039317;28;20459;-72
2023/05/02 09:50:36;;;;;;;7.20;6.43;;;15.50;76.60;;;15.72;58.75;98397.06;5045977;28;20544;-70
2023/05/02 09:53:05;;;;;;;7.43;6.63;;;15.70;76.00;;;16.28;57.27;98399.28;5055953;28;20462;-71
2023/05/02 09:55:33;;;;;;;8.77;6.33;;;16.20;75.60;;;16.02;57.18;98396.06;5042700;28;20466;-72
2023/05/02 09:58:00;;;;;;;7.20;6.50;;;16.10;74.00;;;16.52;57.76;98397.25;5034456;28;20464;-72
2023/05/02 10:00:42;;;;;;;7.33;6.63;;;16.40;75.00;;;16.85;55.26;98397.56;5054100;28;20469;-71
2023/05/02 10:03:16;;;;;;;8.87;8.10;;;16.90;72.50;;;16.32;56.37;98407.81;5040275;28;20821;-72
2023/05/02 10:05:44;;;;;;;8.90;8.00;;;16.60;72.40;;;16.03;58.09;98407.78;5022662;28;20457;-73
2023/05/02 10:08:12;;;;;;;7.90;6.20;;;16.20;73.60;;;15.96;58.56;98413.38;5041623;28;20462;-72
2023/05/02 10:10:44;;;;;;;7.17;6.47;;;16.10;74.30;;;15.66;58.77;98414.34;5026349;28;20616;-72
2023/05/02 10:13:14;;;;;;;7.00;6.10;;;16.00;73.80;;;15.54;59.21;98398.88;5040910;28;20546;-74
2023/05/02 10:15:44;;;;;;;8.27;6.80;;;15.80;74.10;;;15.42;59.75;98406.22;5042119;28;20540;-72
2023/05/02 10:18:28;;;;;;;7.83;6.50;;;15.70;74.70;;;15.43;60.29;98400.53;5030723;28;20461;-73
2023/05/02 10:21:03;;;;;;;8.60;7.23;;;15.60;75.10;;;15.88;59.58;98405.56;5028446;28;20549;-69
2023/05/02 10:23:30;;;;;;;8.17;7.27;;;15.80;75.80;;;15.87;58.29;98404.72;5029491;28;20692;-73
2023/05/02 10:25:59;;;;;;;7.63;6.73;;;16.00;74.40;;;15.62;60.33;98405.84;5018510;28;20841;-71
2023/05/02 10:28:27;;;;;;;9.77;8.23;;;15.80;75.20;;;15.58;60.16;98402.78;5030302;28;20468;-71